createdAt,value
2022-11-05T05:01:03.702Z,8.66
2022-11-05T05:02:03.664Z,8.63
2022-11-05T05:03:03.518Z,8.63
2022-11-05T05:04:03.539Z,8.65
2022-11-05T05:05:03.486Z,8.66
2022-11-05T05:06:04.190Z,8.65
2022-11-05T05:07:03.474Z,8.63
2022-11-05T05:08:03.436Z,8.65
2022-11-05T05:09:03.487Z,8.65
2022-11-05T05:10:03.566Z,8.62
2022-11-05T05:11:03.396Z,8.62
2022-11-05T05:12:03.459Z,8.62
2022-11-05T05:13:03.425Z,8.61
2022-11-05T05:14:03.568Z,8.59
2022-11-05T05:15:03.423Z,8.61
2022-11-05T05:16:12.013Z,8.58
2022-11-05T05:17:03.327Z,8.59
2022-11-05T05:18:03.397Z,8.58
2022-11-05T05:19:03.294Z,8.56
2022-11-05T05:20:03.285Z,8.58
2022-11-05T05:21:03.307Z,8.56
2022-11-05T05:22:03.262Z,8.56
2022-11-05T05:23:03.249Z,8.55
2022-11-05T05:24:03.272Z,8.55
2022-11-05T05:25:03.216Z,8.56
2022-11-05T05:26:03.247Z,8.55
2022-11-05T05:27:03.210Z,8.52
2022-11-05T05:28:03.245Z,8.53
2022-11-05T05:29:03.217Z,8.50
2022-11-05T05:30:03.172Z,8.50
2022-11-05T05:31:03.165Z,8.52
2022-11-05T05:32:03.136Z,8.50
2022-11-05T05:33:03.124Z,8.50
2022-11-05T05:34:03.137Z,8.52
2022-11-05T05:35:03.095Z,8.52
2022-11-05T05:36:08.409Z,8.50
2022-11-05T05:37:04.068Z,8.48
2022-11-05T05:38:03.064Z,8.50
2022-11-05T05:39:03.061Z,8.48
2022-11-05T05:40:03.032Z,8.48
2022-11-05T05:41:03.253Z,8.47
2022-11-05T05:42:03.025Z,8.48
2022-11-05T05:43:02.982Z,8.47
2022-11-05T05:44:02.991Z,8.48
2022-11-05T05:45:03.002Z,8.50
2022-11-05T05:46:02.951Z,8.50
2022-11-05T05:47:02.998Z,8.50
2022-11-05T05:48:02.950Z,8.52
2022-11-05T05:49:05.491Z,8.52
2022-11-05T05:50:03.909Z,8.52
2022-11-05T05:51:02.881Z,8.53
2022-11-05T05:52:02.889Z,8.53
2022-11-05T05:53:02.910Z,8.53
2022-11-05T05:54:02.859Z,8.53
2022-11-05T05:55:02.845Z,8.55
2022-11-05T05:56:02.836Z,8.53
2022-11-05T05:57:02.809Z,8.55
2022-11-05T05:58:02.821Z,8.55
2022-11-05T05:59:02.947Z,8.56
2022-11-05T06:00:02.868Z,8.53
2022-11-05T06:01:02.756Z,8.53
2022-11-05T06:02:02.880Z,8.52
2022-11-05T06:03:02.777Z,8.52
2022-11-05T06:04:02.732Z,8.50
2022-11-05T06:05:02.745Z,8.50
2022-11-05T06:06:02.703Z,8.50
2022-11-05T06:07:02.689Z,8.48
2022-11-05T06:08:02.709Z,8.50
2022-11-05T06:09:02.657Z,8.48
2022-11-05T06:10:02.646Z,8.50
2022-11-05T06:11:02.778Z,8.47
2022-11-05T06:12:02.613Z,8.47
2022-11-05T06:13:02.609Z,8.47
2022-11-05T06:14:02.813Z,8.45
2022-11-05T06:15:02.573Z,8.45
2022-11-05T06:16:02.583Z,8.44
2022-11-05T06:17:02.596Z,8.44
2022-11-05T06:18:02.547Z,8.44
2022-11-05T06:19:02.552Z,8.43
2022-11-05T06:20:02.576Z,8.43
2022-11-05T06:21:02.510Z,8.41
2022-11-05T06:22:02.490Z,8.43
2022-11-05T06:23:02.472Z,8.43
2022-11-05T06:24:02.472Z,8.43
2022-11-05T06:25:02.451Z,8.43
2022-11-05T06:26:02.493Z,8.43
2022-11-05T06:27:02.424Z,8.44
2022-11-05T06:28:02.456Z,8.44
2022-11-05T06:29:02.426Z,8.47
2022-11-05T06:30:02.389Z,8.45
2022-11-05T06:31:02.379Z,8.48
2022-11-05T06:32:02.390Z,8.48
2022-11-05T06:33:02.349Z,8.50
2022-11-05T06:34:02.409Z,8.53
2022-11-05T06:35:02.318Z,8.55
2022-11-05T06:36:02.319Z,8.55
2022-11-05T06:37:02.295Z,8.55
2022-11-05T06:38:02.299Z,8.56
2022-11-05T06:39:02.264Z,8.56
2022-11-05T06:40:02.315Z,8.56
2022-11-05T06:41:07.248Z,8.58
2022-11-05T06:42:18.025Z,8.59
2022-11-05T06:43:03.226Z,8.61
2022-11-05T06:44:02.204Z,8.61
2022-11-05T06:45:02.197Z,8.61
2022-11-05T06:46:02.326Z,8.61
2022-11-05T06:47:02.172Z,8.62
2022-11-05T06:48:02.155Z,8.63
2022-11-05T06:49:02.133Z,8.62
2022-11-05T06:50:02.149Z,8.63
2022-11-05T06:51:02.127Z,8.63
2022-11-05T06:52:02.206Z,8.65
2022-11-05T06:53:02.092Z,8.65
2022-11-05T06:54:02.121Z,8.65
2022-11-05T06:55:02.178Z,8.65
2022-11-05T06:56:02.076Z,8.65
2022-11-05T06:57:02.067Z,8.68
2022-11-05T06:58:02.061Z,8.68
2022-11-05T06:59:02.008Z,8.68
2022-11-05T07:00:05.920Z,8.68
2022-11-05T07:01:03.168Z,8.68
2022-11-05T07:02:02.015Z,8.70
2022-11-05T07:03:01.961Z,8.70
2022-11-05T07:04:01.949Z,8.73
2022-11-05T07:05:01.999Z,8.73
2022-11-05T07:06:01.918Z,8.74
2022-11-05T07:07:01.969Z,8.76
2022-11-05T07:08:01.901Z,8.76
2022-11-05T07:09:01.890Z,8.79
2022-11-05T07:10:01.881Z,8.77
2022-11-05T07:11:01.861Z,8.76
2022-11-05T07:12:01.875Z,8.77
2022-11-05T07:13:06.759Z,8.76
2022-11-05T07:14:02.821Z,8.77
2022-11-05T07:15:01.802Z,8.80
2022-11-05T07:16:01.800Z,8.80
2022-11-05T07:17:01.799Z,8.81
2022-11-05T07:18:01.779Z,8.80
2022-11-05T07:19:02.044Z,8.83
2022-11-05T07:20:01.757Z,8.83
2022-11-05T07:21:01.745Z,8.86
2022-11-05T07:22:01.718Z,8.87
2022-11-05T07:23:01.713Z,8.86
2022-11-05T07:24:01.689Z,8.87
2022-11-05T07:25:01.712Z,8.87
2022-11-05T07:26:01.676Z,8.89
2022-11-05T07:27:01.829Z,8.91
2022-11-05T07:28:01.665Z,8.95
2022-11-05T07:29:01.633Z,8.95
2022-11-05T07:30:01.654Z,8.99
2022-11-05T07:31:01.618Z,9.02
2022-11-05T07:32:01.669Z,9.04
2022-11-05T07:33:01.612Z,9.10
2022-11-05T07:34:01.564Z,9.13
2022-11-05T07:35:01.561Z,9.15
2022-11-05T07:36:01.716Z,9.18
2022-11-05T07:37:01.532Z,9.23
2022-11-05T07:38:01.532Z,9.26
2022-11-05T07:39:01.512Z,9.33
2022-11-05T07:40:01.494Z,9.40
2022-11-05T07:41:01.483Z,9.42
2022-11-05T07:42:01.503Z,9.48
2022-11-05T07:43:01.476Z,9.56
2022-11-05T07:44:01.443Z,9.65
2022-11-05T07:45:01.439Z,9.69
2022-11-05T07:46:01.508Z,9.78
2022-11-05T07:47:01.410Z,9.83
2022-11-05T07:48:01.459Z,9.89
2022-11-05T07:49:01.479Z,9.87
2022-11-05T07:50:01.364Z,9.91
2022-11-05T07:51:01.352Z,9.96
2022-11-05T07:52:01.351Z,10.02
2022-11-05T07:53:01.322Z,10.08
2022-11-05T07:54:01.351Z,10.14
2022-11-05T07:55:01.307Z,10.12
2022-11-05T07:56:01.343Z,10.20
2022-11-05T07:57:01.288Z,10.20
2022-11-05T07:58:01.266Z,10.18
2022-11-05T07:59:01.323Z,10.22
2022-11-05T08:00:01.279Z,10.25
2022-11-05T08:01:01.320Z,10.23
2022-11-05T08:02:01.761Z,10.26
2022-11-05T08:03:07.278Z,10.26
2022-11-05T08:04:02.195Z,10.25
2022-11-05T08:05:01.244Z,10.23
2022-11-05T08:06:01.156Z,10.23
2022-11-05T08:07:01.162Z,10.26
2022-11-05T08:08:01.190Z,10.27
2022-11-05T08:09:01.127Z,10.26
2022-11-05T08:10:01.114Z,10.29
2022-11-05T08:11:01.147Z,10.34
2022-11-05T08:12:03.109Z,10.38
2022-11-05T08:13:01.113Z,10.42
2022-11-05T08:14:01.249Z,10.45
2022-11-05T08:15:01.085Z,10.45
2022-11-05T08:16:01.038Z,10.47
2022-11-05T08:17:01.029Z,10.48
2022-11-05T08:18:01.013Z,10.51
2022-11-05T08:19:01.004Z,10.47
2022-11-05T08:20:01.092Z,10.44
2022-11-05T08:21:01.009Z,10.44
2022-11-05T08:22:00.962Z,10.42
2022-11-05T08:23:00.961Z,10.45
2022-11-05T08:24:00.943Z,10.48
2022-11-05T08:25:06.467Z,10.51
2022-11-05T08:26:01.971Z,10.52
2022-11-05T08:27:00.910Z,10.55
2022-11-05T08:28:00.942Z,10.55
2022-11-05T08:29:00.884Z,10.48
2022-11-05T08:30:00.882Z,10.51
2022-11-05T08:31:00.859Z,10.47
2022-11-05T08:32:00.957Z,10.48
2022-11-05T08:33:00.837Z,10.48
2022-11-05T08:34:02.657Z,10.52
2022-11-05T08:35:00.824Z,10.53
2022-11-05T08:36:00.810Z,10.55
2022-11-05T08:37:00.781Z,10.59
2022-11-05T08:38:01.619Z,10.60
2022-11-05T08:39:00.758Z,10.59
2022-11-05T08:40:00.758Z,10.53
2022-11-05T08:41:00.732Z,10.51
2022-11-05T08:42:00.714Z,10.48
2022-11-05T08:43:00.703Z,10.42
2022-11-05T08:44:00.876Z,10.34
2022-11-05T08:45:00.677Z,10.29
2022-11-05T08:46:00.660Z,10.27
2022-11-05T08:47:00.696Z,10.25
2022-11-05T08:48:00.638Z,10.23
2022-11-05T08:49:00.618Z,10.20
2022-11-05T08:50:00.664Z,10.17
2022-11-05T08:51:00.596Z,10.12
2022-11-05T08:52:00.786Z,10.05
2022-11-05T08:53:00.576Z,10.01
2022-11-05T08:54:00.558Z,9.96
2022-11-05T08:55:00.547Z,9.90
2022-11-05T08:56:00.539Z,9.87
2022-11-05T08:57:00.526Z,9.84
2022-11-05T08:58:00.555Z,9.86
2022-11-05T08:59:00.508Z,9.83
2022-11-05T09:00:00.490Z,9.79
2022-11-05T09:01:04.956Z,9.78
2022-11-05T09:02:01.666Z,9.81
2022-11-05T09:03:00.445Z,9.79
2022-11-05T09:04:00.435Z,9.81
2022-11-05T09:05:00.442Z,9.79
2022-11-05T09:06:00.482Z,9.78
2022-11-05T09:07:00.406Z,9.75
2022-11-05T09:08:01.597Z,9.75
2022-11-05T09:09:00.392Z,9.75
2022-11-05T09:10:00.362Z,9.74
2022-11-05T09:11:00.406Z,9.71
2022-11-05T09:12:11.888Z,9.71
2022-11-05T09:13:01.396Z,9.69
2022-11-05T09:14:00.402Z,9.68
2022-11-05T09:15:00.309Z,9.64
2022-11-05T09:16:00.281Z,9.61
2022-11-05T09:17:00.512Z,9.58
2022-11-05T09:18:00.249Z,9.51
2022-11-05T09:19:00.250Z,9.47
2022-11-05T09:20:00.250Z,9.39
2022-11-05T09:21:00.259Z,9.33
2022-11-05T09:22:00.270Z,9.32
2022-11-05T09:23:00.231Z,9.23
2022-11-05T09:24:00.262Z,9.11
2022-11-05T09:25:00.218Z,9.01
2022-11-05T09:26:00.214Z,8.96
2022-11-05T09:27:00.147Z,8.89
2022-11-05T09:28:00.203Z,8.80
2022-11-05T09:29:00.847Z,8.80
2022-11-05T09:30:00.191Z,8.79
2022-11-05T09:31:00.119Z,8.71
2022-11-05T09:32:00.091Z,8.70
2022-11-05T09:33:00.088Z,8.73
2022-11-05T09:34:00.141Z,8.73
2022-11-05T09:35:00.136Z,8.73
2022-11-05T09:36:00.810Z,8.76
2022-11-05T09:37:00.025Z,8.76
2022-11-05T09:38:01.182Z,8.74
2022-11-05T09:39:00.000Z,8.77
2022-11-05T09:40:00.068Z,8.81
2022-11-05T09:41:00.108Z,8.84
2022-11-05T09:41:59.943Z,8.84
2022-11-05T09:42:59.938Z,8.89
2022-11-05T09:43:59.931Z,8.94
2022-11-05T09:44:59.935Z,8.91
2022-11-05T09:45:59.901Z,8.84
2022-11-05T09:47:00.143Z,8.81
2022-11-05T09:47:59.896Z,8.84
2022-11-05T09:48:59.871Z,8.91
2022-11-05T09:49:59.880Z,8.92
2022-11-05T09:50:59.942Z,8.92
2022-11-05T09:51:59.828Z,8.98
2022-11-05T09:53:00.099Z,9.05
2022-11-05T09:53:59.822Z,9.05
2022-11-05T09:54:59.789Z,9.13
2022-11-05T09:55:59.850Z,9.21
2022-11-05T09:56:59.787Z,9.29
2022-11-05T09:57:59.742Z,9.35
2022-11-05T09:58:59.790Z,9.33
2022-11-05T09:59:59.722Z,9.32
2022-11-05T10:00:59.778Z,9.39
2022-11-05T10:01:59.795Z,9.48
2022-11-05T10:02:59.700Z,9.50
2022-11-05T10:03:59.688Z,9.43
2022-11-05T10:05:02.426Z,9.38
2022-11-05T10:06:00.651Z,9.35
2022-11-05T10:06:59.651Z,9.35
2022-11-05T10:07:59.612Z,9.35
2022-11-05T10:08:59.637Z,9.36
2022-11-05T10:09:59.599Z,9.36
2022-11-05T10:10:59.650Z,9.39
2022-11-05T10:11:59.603Z,9.38
2022-11-05T10:12:59.560Z,9.39
2022-11-05T10:13:59.549Z,9.39
2022-11-05T10:14:59.557Z,9.43
2022-11-05T10:15:59.621Z,9.40
2022-11-05T10:16:59.704Z,9.39
2022-11-05T10:17:59.492Z,9.39
2022-11-05T10:18:59.528Z,9.43
2022-11-05T10:19:59.458Z,9.46
2022-11-05T10:20:59.475Z,9.47
2022-11-05T10:22:06.649Z,9.47
2022-11-05T10:23:00.469Z,9.50
2022-11-05T10:23:59.405Z,9.42
2022-11-05T10:24:59.431Z,9.39
2022-11-05T10:25:59.399Z,9.35
2022-11-05T10:26:59.517Z,9.38
2022-11-05T10:27:59.392Z,9.36
2022-11-05T10:28:59.346Z,9.42
2022-11-05T10:29:59.372Z,9.47
2022-11-05T10:30:59.334Z,9.47
2022-11-05T10:31:59.319Z,9.47
2022-11-05T10:32:59.564Z,9.43
2022-11-05T10:34:04.293Z,9.43
2022-11-05T10:34:59.284Z,9.43
2022-11-05T10:36:02.985Z,9.40
2022-11-05T10:36:59.275Z,9.48
2022-11-05T10:37:59.254Z,9.46
2022-11-05T10:38:59.316Z,9.46
2022-11-05T10:39:59.214Z,9.50
2022-11-05T10:40:59.217Z,9.56
2022-11-05T10:41:59.186Z,9.58
2022-11-05T10:42:59.245Z,9.54
2022-11-05T10:43:59.157Z,9.56
2022-11-05T10:44:59.166Z,9.61
2022-11-05T10:45:59.355Z,9.66
2022-11-05T10:46:59.146Z,9.69
2022-11-05T10:47:59.106Z,9.71
2022-11-05T10:48:59.101Z,9.71
2022-11-05T10:49:59.106Z,9.66
2022-11-05T10:50:59.085Z,9.56
2022-11-05T10:51:59.103Z,9.54
2022-11-05T10:52:59.120Z,9.54
2022-11-05T10:54:01.848Z,9.56
2022-11-05T10:54:59.043Z,9.58
2022-11-05T10:55:59.011Z,9.64
2022-11-05T10:56:59.017Z,9.65
2022-11-05T10:57:59.033Z,9.68
2022-11-05T10:58:59.193Z,9.66
2022-11-05T10:59:58.961Z,9.68
2022-11-05T11:00:59.117Z,9.66
2022-11-05T11:01:59.072Z,9.65
2022-11-05T11:02:58.934Z,9.64
2022-11-05T11:03:58.981Z,9.60
2022-11-05T11:04:58.931Z,9.58
2022-11-05T11:05:59.581Z,9.56
2022-11-05T11:06:58.902Z,9.48
2022-11-05T11:07:58.927Z,9.48
2022-11-05T11:08:58.857Z,9.47
2022-11-05T11:09:58.856Z,9.47
2022-11-05T11:10:59.080Z,9.48
2022-11-05T11:11:58.820Z,9.51
2022-11-05T11:12:58.807Z,9.56
2022-11-05T11:13:58.880Z,9.57
2022-11-05T11:14:58.769Z,9.54
2022-11-05T11:15:58.848Z,9.51
2022-11-05T11:17:05.984Z,9.53
2022-11-05T11:17:59.469Z,9.61
2022-11-05T11:18:58.715Z,9.64
2022-11-05T11:19:58.708Z,9.58
2022-11-05T11:20:58.686Z,9.61
2022-11-05T11:21:58.683Z,9.66
2022-11-05T11:22:58.843Z,9.71
2022-11-05T11:23:58.645Z,9.75
2022-11-05T11:24:58.635Z,9.78
2022-11-05T11:25:58.629Z,9.83
2022-11-05T11:26:58.619Z,9.86
2022-11-05T11:27:58.605Z,9.89
2022-11-05T11:28:58.650Z,9.94
2022-11-05T11:29:58.572Z,9.94
2022-11-05T11:30:58.575Z,9.93
2022-11-05T11:31:58.623Z,9.97
2022-11-05T11:32:58.545Z,10.04
2022-11-05T11:33:58.521Z,10.02
2022-11-05T11:34:58.518Z,10.12
2022-11-05T11:35:58.490Z,10.23
2022-11-05T11:36:58.490Z,10.33
2022-11-05T11:37:58.721Z,10.34
2022-11-05T11:38:58.477Z,10.25
2022-11-05T11:39:58.455Z,10.17
2022-11-05T11:40:58.443Z,10.22
2022-11-05T11:41:58.420Z,10.11
2022-11-05T11:42:58.440Z,10.14
2022-11-05T11:43:58.480Z,10.22
2022-11-05T11:44:58.390Z,10.15
2022-11-05T11:46:03.767Z,10.17
2022-11-05T11:46:59.515Z,10.12
2022-11-05T11:47:58.360Z,10.18
2022-11-05T11:48:58.370Z,10.17
2022-11-05T11:49:58.836Z,10.23
2022-11-05T11:50:58.327Z,10.29
2022-11-05T11:51:58.299Z,10.34
2022-11-05T11:52:58.297Z,10.42
2022-11-05T11:53:58.285Z,10.52
2022-11-05T11:54:58.259Z,10.56
2022-11-05T11:55:58.520Z,10.63
2022-11-05T11:56:58.323Z,10.66
2022-11-05T11:57:58.237Z,10.74
2022-11-05T11:58:58.216Z,10.76
2022-11-05T12:00:08.809Z,10.78
2022-11-05T12:00:59.237Z,10.76
2022-11-05T12:01:58.387Z,10.70
2022-11-05T12:03:01.940Z,10.68
2022-11-05T12:03:58.147Z,10.67
2022-11-05T12:04:58.143Z,10.70
2022-11-05T12:05:58.222Z,10.68
2022-11-05T12:06:58.126Z,10.73
2022-11-05T12:07:58.578Z,10.84
2022-11-05T12:09:03.631Z,10.89
2022-11-05T12:09:59.080Z,10.89
2022-11-05T12:10:58.080Z,10.76
2022-11-05T12:11:58.044Z,10.68
2022-11-05T12:12:58.034Z,10.68
2022-11-05T12:13:59.734Z,10.74
2022-11-05T12:14:58.104Z,10.88
2022-11-05T12:15:58.001Z,10.97
2022-11-05T12:16:57.974Z,10.97
2022-11-05T12:17:57.965Z,11.04
2022-11-05T12:18:57.945Z,11.07
2022-11-05T12:19:58.133Z,11.19
2022-11-05T12:20:58.381Z,11.24
2022-11-05T12:21:57.914Z,11.22
2022-11-05T12:22:57.900Z,11.29
2022-11-05T12:23:57.899Z,11.33
2022-11-05T12:24:57.872Z,11.32
2022-11-05T12:25:58.112Z,11.33
2022-11-05T12:26:57.850Z,11.19
2022-11-05T12:27:57.848Z,11.17
2022-11-05T12:29:17.841Z,11.17
2022-11-05T12:29:58.809Z,11.17
2022-11-05T12:30:57.790Z,11.09
2022-11-05T12:31:57.981Z,11.15
2022-11-05T12:32:57.790Z,11.25
2022-11-05T12:33:57.751Z,11.37
2022-11-05T12:34:57.749Z,11.46
2022-11-05T12:35:58.136Z,11.55
2022-11-05T12:36:57.708Z,11.65
2022-11-05T12:37:57.732Z,11.72
2022-11-05T12:38:57.708Z,11.79
2022-11-05T12:39:57.708Z,11.80
2022-11-05T12:40:57.658Z,11.76
2022-11-05T12:41:57.668Z,11.78
2022-11-05T12:42:57.626Z,11.78
2022-11-05T12:43:57.628Z,11.76
2022-11-05T12:44:57.679Z,11.73
2022-11-05T12:45:57.597Z,11.75
2022-11-05T12:46:57.578Z,11.70
2022-11-05T12:47:57.567Z,11.64
2022-11-05T12:48:57.557Z,11.43
2022-11-05T12:49:57.552Z,11.25
2022-11-05T12:50:58.114Z,11.11
2022-11-05T12:51:57.526Z,11.04
2022-11-05T12:52:57.512Z,11.00
2022-11-05T12:53:57.503Z,10.89
2022-11-05T12:54:57.476Z,10.94
2022-11-05T12:55:57.471Z,11.04
2022-11-05T12:56:57.517Z,11.02
2022-11-05T12:57:57.453Z,11.02
2022-11-05T12:58:57.433Z,11.09
2022-11-05T12:59:57.422Z,11.18
2022-11-05T13:00:57.722Z,11.24
2022-11-05T13:01:57.555Z,11.27
2022-11-05T13:02:57.419Z,11.32
2022-11-05T13:03:57.364Z,11.27
2022-11-05T13:04:57.345Z,11.29
2022-11-05T13:06:01.457Z,11.24
2022-11-05T13:06:58.359Z,11.28
2022-11-05T13:07:57.319Z,11.29
2022-11-05T13:08:57.292Z,11.39
2022-11-05T13:09:57.282Z,11.44
2022-11-05T13:10:57.291Z,11.51
2022-11-05T13:11:57.264Z,11.54
2022-11-05T13:12:57.332Z,11.55
2022-11-05T13:13:57.252Z,11.60
2022-11-05T13:14:57.211Z,11.67
2022-11-05T13:15:57.215Z,11.65
2022-11-05T13:16:57.194Z,11.61
2022-11-05T13:17:57.198Z,11.55
2022-11-05T13:18:57.350Z,11.54
2022-11-05T13:19:57.165Z,11.46
2022-11-05T13:20:57.142Z,11.43
2022-11-05T13:21:57.136Z,11.40
2022-11-05T13:22:57.115Z,11.49
2022-11-05T13:23:57.100Z,11.58
2022-11-05T13:24:57.327Z,11.64
2022-11-05T13:25:57.079Z,11.69
2022-11-05T13:26:57.069Z,11.76
2022-11-05T13:27:57.048Z,11.69
2022-11-05T13:28:57.033Z,11.44
2022-11-05T13:29:57.019Z,11.42
2022-11-05T13:30:57.051Z,11.46
2022-11-05T13:31:57.039Z,11.51
2022-11-05T13:32:57.008Z,11.57
2022-11-05T13:33:57.183Z,11.64
2022-11-05T13:34:56.961Z,11.70
2022-11-05T13:35:58.787Z,11.69
2022-11-05T13:36:56.941Z,11.70
2022-11-05T13:37:56.914Z,11.76
2022-11-05T13:38:56.924Z,11.78
2022-11-05T13:39:56.904Z,11.69
2022-11-05T13:40:56.900Z,11.54
2022-11-05T13:41:56.935Z,11.55
2022-11-05T13:42:56.856Z,11.51
2022-11-05T13:43:56.875Z,11.39
2022-11-05T13:44:56.834Z,11.29
2022-11-05T13:46:00.188Z,11.32
2022-11-05T13:46:58.000Z,11.37
2022-11-05T13:47:56.803Z,11.43
2022-11-05T13:48:56.775Z,11.46
2022-11-05T13:49:56.761Z,11.46
2022-11-05T13:50:56.761Z,11.51
2022-11-05T13:51:56.746Z,11.55
2022-11-05T13:52:56.773Z,11.62
2022-11-05T13:53:56.718Z,11.65
2022-11-05T13:54:56.814Z,11.70
2022-11-05T13:55:57.381Z,11.64
2022-11-05T13:56:56.715Z,11.61
2022-11-05T13:57:56.906Z,11.62
2022-11-05T13:58:56.682Z,11.62
2022-11-05T13:59:56.636Z,11.61
2022-11-05T14:00:56.763Z,11.58
2022-11-05T14:01:56.816Z,11.54
2022-11-05T14:02:56.649Z,11.54
2022-11-05T14:03:56.592Z,11.54
2022-11-05T14:05:00.730Z,11.55
2022-11-05T14:05:56.563Z,11.60
2022-11-05T14:06:56.862Z,11.58
2022-11-05T14:07:56.550Z,11.55
2022-11-05T14:08:56.522Z,11.47
2022-11-05T14:09:56.528Z,11.42
2022-11-05T14:10:56.503Z,11.42
2022-11-05T14:11:56.492Z,11.39
2022-11-05T14:12:56.525Z,11.35
2022-11-05T14:13:56.459Z,11.36
2022-11-05T14:14:59.077Z,11.29
2022-11-05T14:15:56.436Z,11.32
2022-11-05T14:16:56.481Z,11.29
2022-11-05T14:17:56.427Z,11.35
2022-11-05T14:18:56.396Z,11.39
2022-11-05T14:19:56.398Z,11.37
2022-11-05T14:20:56.378Z,11.37
2022-11-05T14:21:56.358Z,11.37
2022-11-05T14:22:56.800Z,11.36
2022-11-05T14:23:56.342Z,11.36
2022-11-05T14:24:56.317Z,11.36
2022-11-05T14:25:56.315Z,11.37
2022-11-05T14:26:56.288Z,11.36
2022-11-05T14:27:56.286Z,11.35
2022-11-05T14:28:56.318Z,11.33
2022-11-05T14:29:56.261Z,11.29
2022-11-05T14:30:56.246Z,11.22
2022-11-05T14:32:08.670Z,11.19
2022-11-05T14:32:57.212Z,11.19
2022-11-05T14:33:56.196Z,11.17
2022-11-05T14:34:56.229Z,11.15
2022-11-05T14:35:56.175Z,11.11
2022-11-05T14:36:56.213Z,11.10
2022-11-05T14:37:56.201Z,11.10
2022-11-05T14:39:00.043Z,11.07
2022-11-05T14:39:57.135Z,11.04
2022-11-05T14:40:56.107Z,11.02
2022-11-05T14:41:56.107Z,10.96
2022-11-05T14:42:56.362Z,10.91
2022-11-05T14:43:56.076Z,10.85
2022-11-05T14:44:56.067Z,10.82
2022-11-05T14:45:56.073Z,10.78
2022-11-05T14:46:56.073Z,10.74
2022-11-05T14:47:56.037Z,10.73
2022-11-05T14:48:56.053Z,10.67
2022-11-05T14:49:56.003Z,10.67
2022-11-05T14:50:56.025Z,10.63
2022-11-05T14:51:55.963Z,10.61
2022-11-05T14:52:55.965Z,10.60
2022-11-05T14:53:55.965Z,10.55
2022-11-05T14:54:55.961Z,10.53
2022-11-05T14:55:55.932Z,10.51
2022-11-05T14:56:56.572Z,10.47
2022-11-05T14:57:55.953Z,10.44
2022-11-05T14:58:55.881Z,10.41
2022-11-05T14:59:55.881Z,10.40
2022-11-05T15:00:56.105Z,10.38
2022-11-05T15:01:55.992Z,10.36
2022-11-05T15:02:55.830Z,10.33
2022-11-05T15:03:55.859Z,10.32
2022-11-05T15:04:55.811Z,10.30
2022-11-05T15:05:55.803Z,10.27
2022-11-05T15:06:55.803Z,10.26
2022-11-05T15:07:55.801Z,10.26
2022-11-05T15:08:55.760Z,10.22
2022-11-05T15:09:55.760Z,10.20
2022-11-05T15:10:55.769Z,10.18
2022-11-05T15:11:55.737Z,10.17
2022-11-05T15:12:55.790Z,10.15
2022-11-05T15:13:55.762Z,10.15
2022-11-05T15:14:55.736Z,10.14
2022-11-05T15:15:55.667Z,10.11
2022-11-05T15:16:55.650Z,10.09
2022-11-05T15:17:55.656Z,10.09
2022-11-05T15:18:55.657Z,10.09
2022-11-05T15:19:55.637Z,10.07
2022-11-05T15:20:55.616Z,10.04
2022-11-05T15:21:55.636Z,10.04
2022-11-05T15:22:55.838Z,10.05
2022-11-05T15:23:55.576Z,10.05
2022-11-05T15:24:55.565Z,10.04
2022-11-05T15:25:55.555Z,10.04
2022-11-05T15:26:55.527Z,10.01
2022-11-05T15:27:55.528Z,9.99
2022-11-05T15:28:55.542Z,9.99
2022-11-05T15:29:55.496Z,9.99
2022-11-05T15:30:55.476Z,9.96
2022-11-05T15:31:55.469Z,9.94
2022-11-05T15:32:55.486Z,9.96
2022-11-05T15:33:55.463Z,9.94
2022-11-05T15:34:55.762Z,9.96
2022-11-05T15:35:55.428Z,9.91
2022-11-05T15:36:55.399Z,9.91
2022-11-05T15:38:01.410Z,9.91
2022-11-05T15:39:56.971Z,9.91
2022-11-05T15:40:55.373Z,9.90
2022-11-05T15:41:55.355Z,9.89
2022-11-05T15:42:55.334Z,9.89
2022-11-05T15:43:55.321Z,9.87
2022-11-05T15:44:55.343Z,9.86
2022-11-05T15:45:55.383Z,9.83
2022-11-05T15:46:55.272Z,9.84
2022-11-05T15:47:55.272Z,9.83
2022-11-05T15:48:55.252Z,9.81
2022-11-05T15:49:55.267Z,9.81
2022-11-05T15:50:55.231Z,9.79
2022-11-05T15:51:55.599Z,9.78
2022-11-05T15:52:56.707Z,9.76
2022-11-05T15:54:23.959Z,9.75
2022-11-05T15:54:56.207Z,9.74
2022-11-05T15:55:55.157Z,9.74
2022-11-05T15:56:55.158Z,9.74
2022-11-05T15:57:55.350Z,9.72
2022-11-05T15:59:02.142Z,9.72
2022-11-05T16:00:02.244Z,9.69
2022-11-05T16:01:02.168Z,9.69
2022-11-05T16:02:02.242Z,9.68
2022-11-05T16:03:02.222Z,9.66
2022-11-05T16:04:08.599Z,9.65
2022-11-05T16:04:56.075Z,9.64
2022-11-05T16:05:55.127Z,9.64
2022-11-05T16:06:55.020Z,9.61
2022-11-05T16:08:02.028Z,9.61
2022-11-05T16:09:02.044Z,9.60
2022-11-05T16:10:06.062Z,9.58
2022-11-05T16:12:05.542Z,9.58
2022-11-05T16:13:13.573Z,9.58
2022-11-05T16:14:12.161Z,9.58
2022-11-05T16:15:05.119Z,9.58
2022-11-05T16:16:05.126Z,9.57
2022-11-05T16:17:05.096Z,9.57
2022-11-05T16:18:05.322Z,9.57
2022-11-05T16:19:05.073Z,9.57
2022-11-05T16:20:05.052Z,9.58
2022-11-05T16:21:05.058Z,9.60
2022-11-05T16:22:05.022Z,9.58
2022-11-05T16:23:05.004Z,9.56
2022-11-05T16:24:05.065Z,9.56
2022-11-05T16:25:04.995Z,9.54
2022-11-05T16:26:04.982Z,9.50
2022-11-05T16:27:04.964Z,9.46
2022-11-05T16:28:04.960Z,9.43
2022-11-05T16:29:04.940Z,9.39
2022-11-05T16:30:05.412Z,9.38
2022-11-05T16:31:04.912Z,9.36
2022-11-05T16:32:04.899Z,9.33
2022-11-05T16:33:04.936Z,9.32
2022-11-05T16:34:04.889Z,9.31
2022-11-05T16:35:04.873Z,9.28
2022-11-05T16:36:04.899Z,9.28
2022-11-05T16:37:04.838Z,9.26
2022-11-05T16:38:04.839Z,9.24
2022-11-05T16:39:04.861Z,9.24
2022-11-05T16:40:04.815Z,9.21
2022-11-05T16:41:04.847Z,9.23
2022-11-05T16:42:04.819Z,9.24
2022-11-05T16:43:04.765Z,9.26
2022-11-05T16:44:04.766Z,9.23
2022-11-05T16:45:04.747Z,9.21
2022-11-05T16:46:05.338Z,9.18
2022-11-05T16:47:04.716Z,9.17
2022-11-05T16:48:04.714Z,9.14
2022-11-05T16:49:04.697Z,9.13
2022-11-05T16:50:04.682Z,9.13
2022-11-05T16:51:04.670Z,9.13
2022-11-05T16:52:04.907Z,9.13
2022-11-05T16:53:04.636Z,9.11
2022-11-05T16:54:04.643Z,9.08
2022-11-05T16:55:04.624Z,9.05
2022-11-05T16:56:04.683Z,9.04
2022-11-05T16:57:04.590Z,9.01
2022-11-05T16:58:04.606Z,8.99
2022-11-05T16:59:04.810Z,8.99
2022-11-05T17:00:04.575Z,8.98
2022-11-05T17:01:04.676Z,8.98
2022-11-05T17:02:04.633Z,8.99
2022-11-05T17:03:04.536Z,8.99
2022-11-05T17:04:04.524Z,8.98
2022-11-05T17:05:04.634Z,8.99
2022-11-05T17:06:04.497Z,9.02
2022-11-05T17:07:04.464Z,9.05
2022-11-05T17:08:04.454Z,9.08
2022-11-05T17:09:04.433Z,9.10
2022-11-05T17:10:04.429Z,9.10
2022-11-05T17:11:04.757Z,9.13
2022-11-05T17:12:04.409Z,9.11
2022-11-05T17:13:04.391Z,9.05
2022-11-05T17:14:04.379Z,9.04
2022-11-05T17:15:04.380Z,8.99
2022-11-05T17:16:04.377Z,8.96
2022-11-05T17:17:11.421Z,8.91
2022-11-05T17:18:04.430Z,8.84
2022-11-05T17:19:04.302Z,8.81
2022-11-05T17:20:04.392Z,8.79
2022-11-05T17:21:04.280Z,8.73
2022-11-05T17:22:04.280Z,8.70
2022-11-05T17:23:04.290Z,8.66
2022-11-05T17:24:04.255Z,8.59
2022-11-05T17:25:04.271Z,8.56
2022-11-05T17:26:04.251Z,8.48
2022-11-05T17:27:04.215Z,8.44
2022-11-05T17:28:04.219Z,8.41
2022-11-05T17:29:04.196Z,8.37
2022-11-05T17:30:04.218Z,8.34
2022-11-05T17:31:04.155Z,8.33
2022-11-05T17:32:04.147Z,8.29
2022-11-05T17:33:04.303Z,8.26
2022-11-05T17:34:04.113Z,8.25
2022-11-05T17:35:04.184Z,8.20
2022-11-05T17:36:04.096Z,8.18
2022-11-05T17:37:04.086Z,8.11
2022-11-05T17:38:04.071Z,8.05
2022-11-05T17:39:04.057Z,8.01
2022-11-05T17:40:04.058Z,7.95
2022-11-05T17:41:04.245Z,7.89
2022-11-05T17:42:04.022Z,7.85
2022-11-05T17:43:04.006Z,7.80
2022-11-05T17:44:03.987Z,7.74
2022-11-05T17:45:03.982Z,7.68
2022-11-05T17:46:04.768Z,7.67
2022-11-05T17:47:03.984Z,7.61
2022-11-05T17:48:03.937Z,7.57
2022-11-05T17:49:03.957Z,7.53
2022-11-05T17:50:03.910Z,7.49
2022-11-05T17:51:03.904Z,7.49
2022-11-05T17:52:03.920Z,7.42
2022-11-05T17:53:03.952Z,7.39
2022-11-05T17:54:03.862Z,7.32
2022-11-05T17:55:03.846Z,7.30
2022-11-05T17:56:03.904Z,7.28
2022-11-05T17:57:03.820Z,7.25
2022-11-05T17:58:03.816Z,7.23
2022-11-05T17:59:03.853Z,7.17
2022-11-05T18:00:03.781Z,7.15
2022-11-05T18:01:03.827Z,7.09
2022-11-05T18:02:03.839Z,7.06
2022-11-05T18:03:03.751Z,7.05
2022-11-05T18:04:08.731Z,7.02
2022-11-05T18:05:04.898Z,6.97
2022-11-05T18:06:03.726Z,6.92
2022-11-05T18:07:03.688Z,6.91
2022-11-05T18:08:03.745Z,6.91
2022-11-05T18:09:03.678Z,6.92
2022-11-05T18:10:03.679Z,6.89
2022-11-05T18:11:03.688Z,6.88